createdAt,value
2022-10-14T00:01:22.707Z,50.43
2022-10-14T00:03:51.740Z,52.13
2022-10-14T00:06:22.933Z,51.53
2022-10-14T00:08:50.986Z,51.07
2022-10-14T00:11:22.757Z,54.07
2022-10-14T00:13:51.594Z,51.63
2022-10-14T00:16:22.110Z,53.50
2022-10-14T00:18:50.571Z,53.23
2022-10-14T00:21:18.805Z,53.43
2022-10-14T00:23:47.691Z,54.73
2022-10-14T00:26:18.772Z,56.53
2022-10-14T00:28:48.422Z,57.70
2022-10-14T00:31:16.783Z,56.87
2022-10-14T00:33:48.666Z,58.60
2022-10-14T00:36:18.838Z,57.57
2022-10-14T00:38:47.517Z,56.87
2022-10-14T00:41:18.570Z,55.00
2022-10-14T00:44:01.246Z,57.33
2022-10-14T00:46:32.213Z,56.10
2022-10-14T00:49:07.217Z,58.40
2022-10-14T00:51:37.322Z,57.90
2022-10-14T00:54:05.819Z,57.97
2022-10-14T00:56:34.550Z,59.03
2022-10-14T00:59:07.732Z,56.77
2022-10-14T01:01:36.228Z,57.60
2022-10-14T01:04:04.746Z,61.67
2022-10-14T01:06:42.710Z,58.83
2022-10-14T01:09:20.339Z,61.13
2022-10-14T01:12:16.176Z,59.73
2022-10-14T01:14:52.837Z,60.80
2022-10-14T01:17:36.086Z,61.17
2022-10-14T01:20:40.169Z,60.67
2022-10-14T01:23:33.170Z,60.50
2022-10-14T01:26:17.518Z,59.23
2022-10-14T01:28:52.689Z,59.23
2022-10-14T01:31:25.436Z,61.73
2022-10-14T01:33:58.082Z,61.10
2022-10-14T01:36:32.152Z,58.40
2022-10-14T01:39:08.122Z,58.53
2022-10-14T01:41:40.779Z,60.83
2022-10-14T01:44:12.123Z,61.07
2022-10-14T01:46:47.705Z,58.10
2022-10-14T01:49:20.926Z,60.53
2022-10-14T01:51:53.742Z,60.03
2022-10-14T01:54:27.407Z,60.97
2022-10-14T01:56:59.379Z,62.53
2022-10-14T01:59:28.493Z,60.03
2022-10-14T02:01:59.062Z,61.23
2022-10-14T02:04:27.184Z,58.70
2022-10-14T02:07:04.411Z,63.30
2022-10-14T02:09:39.411Z,63.43
2022-10-14T02:12:19.882Z,60.87
2022-10-14T02:14:57.586Z,61.10
2022-10-14T02:17:34.099Z,62.70
2022-10-14T02:20:07.078Z,62.20
2022-10-14T02:22:39.303Z,62.20
2022-10-14T02:25:14.138Z,64.00
2022-10-14T02:27:44.676Z,60.97
2022-10-14T02:30:14.324Z,60.73
2022-10-14T02:32:44.654Z,61.03
2022-10-14T02:35:17.168Z,61.60
2022-10-14T02:37:49.382Z,61.37
2022-10-14T02:40:22.430Z,61.27
2022-10-14T02:42:50.593Z,61.33
2022-10-14T02:45:20.351Z,61.20
2022-10-14T02:47:49.885Z,60.90
2022-10-14T02:50:19.159Z,60.87
2022-10-14T02:52:47.427Z,64.67
2022-10-14T02:55:15.642Z,65.50
2022-10-14T02:57:45.485Z,60.93
2022-10-14T03:00:14.476Z,61.97
2022-10-14T03:02:44.020Z,61.70
2022-10-14T03:05:13.577Z,63.73
2022-10-14T03:07:41.912Z,64.73
2022-10-14T03:10:13.377Z,64.63
2022-10-14T03:12:41.704Z,63.20
2022-10-14T03:15:17.418Z,62.13
2022-10-14T03:17:45.412Z,62.17
2022-10-14T03:20:18.118Z,63.80
2022-10-14T03:22:52.192Z,62.60
2022-10-14T03:25:20.295Z,62.97
2022-10-14T03:28:03.419Z,64.13
2022-10-14T03:30:41.173Z,64.20
2022-10-14T03:33:15.577Z,64.33
2022-10-14T03:35:51.035Z,63.43
2022-10-14T03:38:24.521Z,63.67
2022-10-14T03:40:54.929Z,62.83
2022-10-14T03:43:23.045Z,66.40
2022-10-14T03:45:56.508Z,66.10
2022-10-14T03:48:26.068Z,64.03
2022-10-14T03:50:59.341Z,67.63
2022-10-14T03:53:27.572Z,64.47
2022-10-14T03:55:56.085Z,67.13
2022-10-14T03:58:24.088Z,65.80
2022-10-14T04:00:58.497Z,67.37
2022-10-14T04:03:35.428Z,67.67
2022-10-14T04:06:05.185Z,67.17
2022-10-14T04:08:33.228Z,68.03
2022-10-14T04:11:14.229Z,65.67
2022-10-14T04:13:42.356Z,69.27
2022-10-14T04:16:12.208Z,69.00
2022-10-14T04:18:59.621Z,69.63
2022-10-14T04:21:29.179Z,66.87
2022-10-14T04:23:58.643Z,64.47
2022-10-14T04:26:38.515Z,65.13
2022-10-14T04:29:13.334Z,66.17
2022-10-14T04:31:52.049Z,66.93
2022-10-14T04:34:20.513Z,68.60
2022-10-14T04:36:50.051Z,68.47
2022-10-14T04:39:42.947Z,66.20
2022-10-14T04:42:11.321Z,68.43
2022-10-14T04:44:39.748Z,68.23
2022-10-14T04:47:07.864Z,67.80
2022-10-14T04:49:35.888Z,67.93
2022-10-14T04:52:12.441Z,66.23
2022-10-14T04:54:55.459Z,67.17
2022-10-14T04:57:34.532Z,65.47
2022-10-14T05:00:03.481Z,64.53
2022-10-14T05:02:46.524Z,63.20
2022-10-14T05:05:15.992Z,63.30
2022-10-14T05:07:48.290Z,62.17
2022-10-14T05:10:26.492Z,62.47
2022-10-14T05:12:55.459Z,59.17
2022-10-14T05:15:26.262Z,60.23
2022-10-14T05:18:04.611Z,59.87
2022-10-14T05:20:51.600Z,58.50
2022-10-14T05:23:25.459Z,59.47
2022-10-14T05:25:54.750Z,54.80
2022-10-14T05:28:24.183Z,55.87
2022-10-14T05:30:52.296Z,55.57
2022-10-14T05:33:21.485Z,56.87
2022-10-14T05:36:04.893Z,57.67
2022-10-14T05:38:36.523Z,56.83
2022-10-14T05:41:05.414Z,58.60
2022-10-14T05:43:33.935Z,58.77
2022-10-14T05:46:05.635Z,62.80
2022-10-14T05:48:38.269Z,58.73
2022-10-14T05:51:07.130Z,60.00
2022-10-14T05:53:39.978Z,60.23
2022-10-14T05:56:13.422Z,61.97
2022-10-14T05:58:42.260Z,66.53
2022-10-14T06:01:12.478Z,64.67
2022-10-14T06:03:42.856Z,64.50
2022-10-14T06:06:14.189Z,66.47
2022-10-14T06:08:45.157Z,65.90
2022-10-14T06:11:13.819Z,63.37
2022-10-14T06:13:42.097Z,63.47
2022-10-14T06:16:12.048Z,65.73
2022-10-14T06:18:40.794Z,66.20
2022-10-14T06:21:09.108Z,65.77
2022-10-14T06:23:37.152Z,66.20
2022-10-14T06:26:09.105Z,64.70
2022-10-14T06:28:37.224Z,68.40
2022-10-14T06:31:06.127Z,65.93
2022-10-14T06:33:35.674Z,64.90
2022-10-14T06:36:04.671Z,67.47
2022-10-14T06:38:32.695Z,65.80
2022-10-14T06:41:01.063Z,66.87
2022-10-14T06:43:30.426Z,67.50
2022-10-14T06:45:59.671Z,65.30
2022-10-14T06:48:28.038Z,65.57
2022-10-14T06:50:57.067Z,66.73
2022-10-14T06:53:25.139Z,65.23
2022-10-14T06:56:00.238Z,63.03
2022-10-14T06:58:30.797Z,62.83
2022-10-14T07:01:03.067Z,66.30
2022-10-14T07:03:31.316Z,62.70
2022-10-14T07:06:05.875Z,61.47
2022-10-14T07:08:38.156Z,62.80
2022-10-14T07:11:09.858Z,60.17
2022-10-14T07:13:43.184Z,67.10
2022-10-14T07:16:16.146Z,67.57
2022-10-14T07:18:44.803Z,65.83
2022-10-14T07:21:12.844Z,68.93
2022-10-14T07:23:40.904Z,61.63
2022-10-14T07:26:08.970Z,66.63
2022-10-14T07:28:37.113Z,59.23
2022-10-14T07:31:08.813Z,58.80
2022-10-14T07:36:14.278Z,67.10
2022-10-14T07:38:44.912Z,68.53
2022-10-14T07:41:18.219Z,59.50
2022-10-14T07:43:47.052Z,62.60
2022-10-14T07:46:17.883Z,60.17
2022-10-14T07:48:56.541Z,59.83
2022-10-14T07:51:25.621Z,62.27
2022-10-14T07:53:53.993Z,55.70
2022-10-14T07:56:22.508Z,51.03
2022-10-14T07:58:50.520Z,50.57
2022-10-14T08:01:20.747Z,52.43
2022-10-14T08:03:49.968Z,53.53
2022-10-14T08:06:18.662Z,54.37
2022-10-14T08:08:46.759Z,53.33
2022-10-14T08:11:16.975Z,56.23
2022-10-14T08:13:46.328Z,53.13
2022-10-14T08:16:21.355Z,51.97
2022-10-14T08:18:49.769Z,54.67
2022-10-14T08:21:18.937Z,46.10
2022-10-14T08:23:47.259Z,50.57
2022-10-14T08:26:24.058Z,46.67
2022-10-14T08:28:52.837Z,45.97
2022-10-14T08:31:22.836Z,45.23
2022-10-14T08:33:50.869Z,49.77
2022-10-14T08:36:20.243Z,41.60
2022-10-14T08:38:48.416Z,41.30
2022-10-14T08:41:33.850Z,43.67
2022-10-14T08:44:13.684Z,39.85
2022-10-14T08:46:51.157Z,47.33
2022-10-14T08:49:27.059Z,45.33
2022-10-14T08:52:01.057Z,42.13
2022-10-14T08:54:37.978Z,50.55
2022-10-14T08:57:13.183Z,53.47
2022-10-14T08:59:43.335Z,45.60
2022-10-14T09:02:35.815Z,47.25
2022-10-14T09:05:05.395Z,45.70
2022-10-14T09:07:36.063Z,45.17
2022-10-14T09:10:08.548Z,49.97
2022-10-14T09:12:37.876Z,50.92
2022-10-14T09:15:13.605Z,43.38
2022-10-14T09:17:45.567Z,47.72
2022-10-14T09:20:20.604Z,51.35
2022-10-14T09:23:00.924Z,45.47
2022-10-14T09:25:31.586Z,45.85
2022-10-14T09:27:59.687Z,44.50
2022-10-14T09:30:31.414Z,46.35
2022-10-14T09:33:01.012Z,42.33
2022-10-14T09:35:33.528Z,45.05
2022-10-14T09:38:01.728Z,51.60
2022-10-14T09:40:33.718Z,49.15
2022-10-14T09:43:06.698Z,42.08
2022-10-14T09:45:50.172Z,38.10
2022-10-14T09:48:26.423Z,41.45
2022-10-14T09:50:56.862Z,39.65
2022-10-14T09:53:30.036Z,44.08
2022-10-14T09:55:59.913Z,40.80
2022-10-14T09:58:32.963Z,42.15
2022-10-14T10:01:03.020Z,32.58
2022-10-14T10:03:35.119Z,36.78
2022-10-14T10:06:06.967Z,36.90
2022-10-14T10:08:37.101Z,31.38
2022-10-14T10:11:08.381Z,36.35
2022-10-14T10:13:40.605Z,34.80
2022-10-14T10:16:19.420Z,30.33
2022-10-14T10:18:49.056Z,32.80
2022-10-14T10:21:20.150Z,43.55
2022-10-14T10:23:54.901Z,42.25
2022-10-14T10:26:27.254Z,34.97
2022-10-14T10:28:58.060Z,29.30
2022-10-14T10:31:44.017Z,32.05
2022-10-14T10:34:53.970Z,24.27
2022-10-14T10:37:30.878Z,29.58
2022-10-14T10:40:32.175Z,25.52
2022-10-14T10:43:36.427Z,26.90
2022-10-14T10:46:30.932Z,24.27
2022-10-14T10:49:06.938Z,21.88
2022-10-14T10:51:42.104Z,23.38
2022-10-14T10:54:25.847Z,23.65
2022-10-14T10:56:58.743Z,23.27
2022-10-14T10:59:38.248Z,24.95
2022-10-14T11:02:33.368Z,27.20
2022-10-14T11:05:10.584Z,29.60
2022-10-14T11:08:08.863Z,27.75
2022-10-14T11:11:02.222Z,28.00
2022-10-14T11:13:43.268Z,42.45
2022-10-14T11:16:16.838Z,31.90
2022-10-14T11:18:49.637Z,26.30
2022-10-14T11:21:27.162Z,27.38
2022-10-14T11:24:07.154Z,28.02
2022-10-14T11:27:00.688Z,27.50
2022-10-14T11:29:46.634Z,26.75
2022-10-14T11:32:23.278Z,22.85
2022-10-14T11:35:07.374Z,21.15
2022-10-14T11:37:48.182Z,21.15
2022-10-14T11:40:25.705Z,19.73
2022-10-14T11:43:08.993Z,21.65
2022-10-14T11:45:47.685Z,21.80
2022-10-14T11:48:26.883Z,19.15
2022-10-14T11:50:59.172Z,18.80
2022-10-14T11:53:43.436Z,19.65
2022-10-14T11:56:29.305Z,19.98
2022-10-14T11:59:03.114Z,19.05
2022-10-14T12:01:35.813Z,20.77
2022-10-14T12:04:17.551Z,22.08
2022-10-14T12:06:50.125Z,22.30
2022-10-14T12:09:25.104Z,20.70
2022-10-14T12:11:59.090Z,20.05
2022-10-14T12:14:33.922Z,18.90
2022-10-14T12:17:05.295Z,20.42
2022-10-14T12:19:33.929Z,19.35
2022-10-14T12:22:10.842Z,18.33
2022-10-14T12:24:43.010Z,18.50
2022-10-14T12:27:15.383Z,18.52
2022-10-14T12:29:47.843Z,20.02
2022-10-14T12:32:24.297Z,19.17
2022-10-14T12:34:54.855Z,18.60
2022-10-14T12:37:51.215Z,19.33
2022-10-14T12:40:29.962Z,18.65
2022-10-14T12:43:05.073Z,19.00
2022-10-14T12:45:35.898Z,18.85
2022-10-14T12:48:08.626Z,17.65
2022-10-14T12:50:39.309Z,19.23
2022-10-14T12:53:16.703Z,20.02
2022-10-14T12:55:51.109Z,19.85
2022-10-14T12:58:26.339Z,19.45
2022-10-14T13:01:01.790Z,19.67
2022-10-14T13:03:33.944Z,20.40
2022-10-14T13:06:36.809Z,20.10
2022-10-14T13:09:35.789Z,22.23
2022-10-14T13:12:42.094Z,21.92
2022-10-14T13:15:49.748Z,21.63
2022-10-14T13:18:52.743Z,22.33
2022-10-14T13:21:52.373Z,24.25
2022-10-14T13:24:28.084Z,23.45
2022-10-14T13:27:16.009Z,24.00
2022-10-14T13:30:02.074Z,24.52
2022-10-14T13:32:41.951Z,25.13
2022-10-14T13:35:22.877Z,24.83
2022-10-14T13:37:57.876Z,25.13
2022-10-14T13:40:30.225Z,25.27
2022-10-14T13:42:59.872Z,25.10
2022-10-14T13:45:38.283Z,26.30
2022-10-14T13:48:16.973Z,26.13
2022-10-14T13:50:48.063Z,27.02
2022-10-14T13:53:17.914Z,26.45
2022-10-14T13:55:51.622Z,28.60
2022-10-14T13:58:24.010Z,25.98
2022-10-14T14:01:01.442Z,27.83
2022-10-14T14:03:35.381Z,26.63
2022-10-14T14:06:10.760Z,28.05
2022-10-14T14:08:46.997Z,26.48
2022-10-14T14:11:20.087Z,25.63
2022-10-14T14:13:58.934Z,24.98
2022-10-14T14:16:32.282Z,24.65
2022-10-14T14:19:10.134Z,24.30
2022-10-14T14:21:39.372Z,30.70
2022-10-14T14:24:18.016Z,24.98
2022-10-14T14:26:54.943Z,24.42
2022-10-14T14:29:28.002Z,24.55
2022-10-14T14:32:12.622Z,25.52
2022-10-14T14:34:45.558Z,24.02
2022-10-14T14:37:47.720Z,25.98
2022-10-14T14:40:19.281Z,24.85
2022-10-14T14:42:49.207Z,25.65
2022-10-14T14:45:21.858Z,23.73
2022-10-14T14:47:54.179Z,24.25
2022-10-14T14:50:32.699Z,26.83
2022-10-14T14:53:04.305Z,25.60
2022-10-14T14:55:43.214Z,26.08
2022-10-14T14:58:35.259Z,26.55
2022-10-14T15:01:04.051Z,26.23
2022-10-14T15:03:34.577Z,27.55
2022-10-14T15:06:06.641Z,28.98
2022-10-14T15:08:38.169Z,26.35
2022-10-14T15:11:06.589Z,27.70
2022-10-14T15:13:48.736Z,26.67
2022-10-14T15:16:40.234Z,31.73
2022-10-14T15:19:35.653Z,27.08
2022-10-14T15:22:32.630Z,29.25
2022-10-14T15:25:03.567Z,29.10
2022-10-14T15:27:42.987Z,28.20
2022-10-14T15:30:36.311Z,29.52
2022-10-14T15:33:14.781Z,30.35
2022-10-14T15:35:43.867Z,30.23
2022-10-14T15:38:16.826Z,32.38
2022-10-14T15:40:46.127Z,31.15
2022-10-14T15:43:17.928Z,33.13
2022-10-14T15:46:11.716Z,32.40
2022-10-14T15:48:39.338Z,34.33
2022-10-14T15:51:07.507Z,36.10
2022-10-14T15:53:36.843Z,36.38
2022-10-14T15:56:04.841Z,34.25
2022-10-14T15:58:33.880Z,36.72
2022-10-14T16:01:02.733Z,36.35
2022-10-14T16:03:34.796Z,36.70
2022-10-14T16:06:11.138Z,38.72
2022-10-14T16:08:41.356Z,39.33
2022-10-14T16:11:18.544Z,40.15
2022-10-14T16:13:46.633Z,41.10
2022-10-14T16:16:16.455Z,41.47
2022-10-14T16:18:44.515Z,43.20
2022-10-14T16:21:16.437Z,44.53
2022-10-14T16:23:45.767Z,46.67
2022-10-14T16:26:14.521Z,44.53
2022-10-14T16:28:42.624Z,46.23
2022-10-14T16:31:13.570Z,46.50
2022-10-14T16:33:44.856Z,46.63
2022-10-14T16:36:15.861Z,49.10
2022-10-14T16:38:45.326Z,52.77
2022-10-14T16:41:13.475Z,50.83
2022-10-14T16:43:41.491Z,53.37
2022-10-14T16:46:15.407Z,53.93
2022-10-14T16:48:44.663Z,53.87
2022-10-14T16:51:12.704Z,53.90
2022-10-14T16:53:45.233Z,54.47
2022-10-14T16:56:34.941Z,60.20
2022-10-14T16:59:03.809Z,57.43
2022-10-14T17:01:32.047Z,56.73
2022-10-14T17:04:00.415Z,57.53
2022-10-14T17:06:28.524Z,57.17
2022-10-14T17:08:56.509Z,59.00
2022-10-14T17:11:27.443Z,59.33
2022-10-14T17:13:58.721Z,58.27
2022-10-14T17:16:28.545Z,58.73
2022-10-14T17:18:56.745Z,59.20
2022-10-14T17:21:28.187Z,59.17
2022-10-14T17:23:57.528Z,55.97
2022-10-14T17:26:27.575Z,57.43
2022-10-14T17:28:55.586Z,56.80
2022-10-14T17:31:24.599Z,59.20
2022-10-14T17:33:53.430Z,57.67
2022-10-14T17:36:23.878Z,59.13
2022-10-14T17:38:52.675Z,57.43
2022-10-14T17:41:20.700Z,58.60
2022-10-14T17:43:52.323Z,56.77
2022-10-14T17:46:23.878Z,57.37
2022-10-14T17:48:53.281Z,57.43
2022-10-14T17:51:23.625Z,57.63
2022-10-14T17:53:54.878Z,59.83
2022-10-14T17:56:22.878Z,59.40
2022-10-14T17:58:55.533Z,59.17
2022-10-14T18:01:36.932Z,58.57
2022-10-14T18:04:06.926Z,59.93
2022-10-14T18:06:37.084Z,60.97
2022-10-14T18:09:07.105Z,63.63
2022-10-14T18:12:03.904Z,61.63
2022-10-14T18:14:30.019Z,62.37
2022-10-14T18:16:59.526Z,61.97
2022-10-14T18:19:28.154Z,61.47
2022-10-14T18:21:56.163Z,60.70
2022-10-14T18:24:24.171Z,60.63
2022-10-14T18:26:52.680Z,61.10
2022-10-14T18:29:20.704Z,58.10
2022-10-14T18:34:27.492Z,59.67
2022-10-14T18:36:55.546Z,58.03
2022-10-14T18:39:23.698Z,58.53
2022-10-14T18:41:51.678Z,58.33
2022-10-14T18:44:19.947Z,56.30
2022-10-14T18:46:48.681Z,54.93
2022-10-14T18:49:18.055Z,56.57
2022-10-14T18:51:46.501Z,57.37
2022-10-14T18:54:16.402Z,60.60
2022-10-14T18:56:45.286Z,60.37
2022-10-14T18:59:14.918Z,60.67
2022-10-14T19:01:43.735Z,60.57
2022-10-14T19:04:13.902Z,62.50
2022-10-14T19:06:44.961Z,62.23
2022-10-14T19:09:13.922Z,62.07
2022-10-14T19:11:43.317Z,62.50
2022-10-14T19:14:11.339Z,62.43
2022-10-14T19:16:40.376Z,62.20
2022-10-14T19:19:11.747Z,61.83
2022-10-14T19:21:40.145Z,60.90
2022-10-14T19:24:11.189Z,60.03
2022-10-14T19:26:41.347Z,57.20
2022-10-14T19:29:11.747Z,59.17
2022-10-14T19:31:40.875Z,58.30
2022-10-14T19:34:12.595Z,59.57
2022-10-14T19:36:41.657Z,60.07
2022-10-14T19:39:14.176Z,60.43
2022-10-14T19:41:44.949Z,58.77
2022-10-14T19:44:14.182Z,58.43
2022-10-14T19:46:42.989Z,58.50
2022-10-14T19:49:13.521Z,59.20
2022-10-14T19:51:41.811Z,58.23
2022-10-14T19:54:12.802Z,58.07
2022-10-14T19:56:40.924Z,59.03
2022-10-14T19:59:09.256Z,59.23
2022-10-14T20:01:37.334Z,59.47
2022-10-14T20:04:05.475Z,57.97
2022-10-14T20:06:35.795Z,57.67
2022-10-14T20:09:04.337Z,57.83
2022-10-14T20:11:34.551Z,55.40
2022-10-14T20:14:02.560Z,55.93
2022-10-14T20:16:30.582Z,55.27
2022-10-14T20:18:58.709Z,55.20
2022-10-14T20:21:26.925Z,53.97
2022-10-14T20:23:54.858Z,54.93
2022-10-14T20:26:23.201Z,55.60
2022-10-14T20:28:52.653Z,55.33
2022-10-14T20:31:25.146Z,54.07
2022-10-14T20:33:53.187Z,55.60
2022-10-14T20:36:23.608Z,54.50
2022-10-14T20:38:52.274Z,52.97
2022-10-14T20:41:22.344Z,53.70
2022-10-14T20:43:52.402Z,53.23
2022-10-14T20:46:21.884Z,53.63
2022-10-14T20:48:55.076Z,46.79
2022-10-14T20:51:23.601Z,52.63
2022-10-14T20:53:58.548Z,51.43
2022-10-14T20:56:31.384Z,52.83
2022-10-14T20:59:02.384Z,52.43
2022-10-14T21:01:31.082Z,52.10
2022-10-14T21:04:01.819Z,52.87
2022-10-14T21:06:30.337Z,53.03
2022-10-14T21:08:58.631Z,51.50
2022-10-14T21:11:28.052Z,51.87
2022-10-14T21:13:58.691Z,50.90
2022-10-14T21:16:30.103Z,53.20
2022-10-14T21:19:00.080Z,52.13
2022-10-14T21:21:31.408Z,53.23
2022-10-14T21:24:00.087Z,52.77
2022-10-14T21:26:28.134Z,52.67
2022-10-14T21:28:56.191Z,53.63
2022-10-14T21:31:24.264Z,55.23
2022-10-14T21:34:02.555Z,54.53
2022-10-14T21:36:33.462Z,54.77
2022-10-14T21:39:01.963Z,55.47
2022-10-14T21:41:29.991Z,54.03
2022-10-14T21:43:59.368Z,54.57
2022-10-14T21:46:28.405Z,54.37
2022-10-14T21:48:58.910Z,55.00
2022-10-14T21:51:29.139Z,54.60
2022-10-14T21:53:57.664Z,54.57
2022-10-14T21:56:27.345Z,53.60
2022-10-14T21:58:55.699Z,55.90
2022-10-14T22:01:26.177Z,55.47
2022-10-14T22:03:54.926Z,56.30
2022-10-14T22:06:24.568Z,53.27
2022-10-14T22:08:54.908Z,55.67
2022-10-14T22:11:25.370Z,53.10
2022-10-14T22:13:55.306Z,52.67
2022-10-14T22:16:24.232Z,54.57
2022-10-14T22:18:53.856Z,54.53
2022-10-14T22:21:25.506Z,57.53
2022-10-14T22:23:53.901Z,59.27
2022-10-14T22:26:24.068Z,59.73
2022-10-14T22:28:58.848Z,60.67
2022-10-14T22:31:28.417Z,59.53
2022-10-14T22:33:56.504Z,64.03
2022-10-14T22:36:28.937Z,61.23
2022-10-14T22:38:58.643Z,63.30
2022-10-14T22:41:30.923Z,61.40
2022-10-14T22:44:02.359Z,64.13
2022-10-14T22:46:32.424Z,63.83
2022-10-14T22:49:01.974Z,62.90
2022-10-14T22:51:33.261Z,61.80
2022-10-14T22:54:01.406Z,63.93
2022-10-14T22:56:31.098Z,66.93
2022-10-14T22:59:00.996Z,66.30
2022-10-14T23:01:29.747Z,65.10
2022-10-14T23:03:58.741Z,64.77
2022-10-14T23:06:27.645Z,64.43
2022-10-14T23:08:59.895Z,63.30
2022-10-14T23:11:29.221Z,65.67
2022-10-14T23:13:58.281Z,63.40
2022-10-14T23:16:29.219Z,63.97
2022-10-14T23:18:59.618Z,63.63
2022-10-14T23:21:29.900Z,64.90
2022-10-14T23:24:00.938Z,64.60
2022-10-14T23:26:31.724Z,64.70
2022-10-14T23:29:00.732Z,63.50
2022-10-14T23:31:30.534Z,67.57
2022-10-14T23:33:59.340Z,68.30
2022-10-14T23:36:27.501Z,66.70
2022-10-14T23:38:55.653Z,66.97
2022-10-14T23:41:25.229Z,68.47
2022-10-14T23:43:53.524Z,67.00
2022-10-14T23:46:21.854Z,68.70
2022-10-14T23:49:01.092Z,69.47
2022-10-14T23:51:36.189Z,70.83
2022-10-14T23:54:04.383Z,68.67
2022-10-14T23:56:33.738Z,71.97
2022-10-14T23:59:01.781Z,71.70
